Dilworth, MN

3:19 AM CST on February 28, 2017 (GMT -0600)
Moorhead Municipal

Weather History for KJKJ - February, 2013

Change the Weather History Date:

Sunday, February 17, 2013

  Actual Average (KFAR) Record (KFAR)
Temperature  
Mean Temperature 22 °F -  
Max Temperature 30 °F 24 °F 53 °F (2017)
Min Temperature 15 °F 7 °F -30 °F (1979)
Degree Days  
Heating Degree Days 42    
Moisture  
Dew Point 23 °F    
Average Humidity 96    
Maximum Humidity 100    
Minimum Humidity 86    
Precipitation  
Precipitation 0.00 in - - ()
Sea Level Pressure  
Sea Level Pressure 29.68 in    
Wind  
Wind Speed 17 mph (South)    
Max Wind Speed 25 mph    
Max Gust Speed 34 mph    
Visibility 8 miles    
Events      
Averages and records for this station are not official NWS values.
T = Trace of Precipitation, MM = Missing Value Source: NWS Daily Summary

Daily Weather History Graph

Daily Weather History Graph

Search for Another Location

Airport or City:

Trip Planner

Search our weather history database for the weather conditions in past years. The results will help you decide how hot, cold, wet, or windy it might be!

Date:

Astronomy

Feb. 17, 2013 Rise Set
Actual Time 7:27 AM CST 5:54 PM CST
Civil Twilight 6:55 AM CST 6:25 PM CST
Nautical Twilight 6:20 AM CST 7:01 PM CST
Astronomical Twilight 5:45 AM CST 7:36 PM CST
Moon 10:51 AM CST (2/17) 1:20 AM CST (2/17)
Length of Visible Light 11h 30m
Length of Day
10h 27m
Waxing Crescent, 49% of the Moon is Illuminated
Feb 17
Waxing Crescent
Feb 17
First Quarter
Feb 25
Full
Mar 4
Last Quarter
Mar 11
New

Hourly Weather History & Observations

Time (CST) Temp. Windchill Dew Point Humidity Pressure Visibility Wind Dir Wind Speed Gust Speed Precip Events Conditions
12:14 AM 15.8 °F 1.4 °F 12.2 °F 86% 29.97 in 10.0 mi South 13.8 mph - N/A   Scattered Clouds
12:35 AM 15.8 °F 0.9 °F 12.2 °F 86% 29.96 in 10.0 mi South 15.0 mph - N/A   Scattered Clouds
12:54 AM 15.8 °F 1.4 °F 12.2 °F 86% 29.95 in 10.0 mi South 13.8 mph 19.6 mph N/A   Scattered Clouds
1:15 AM 15.8 °F -0.2 °F 12.2 °F 86% 29.94 in 10.0 mi South 17.3 mph 24.2 mph N/A   Mostly Cloudy
1:35 AM 15.8 °F -0.6 °F 14.0 °F 93% 29.93 in 7.0 mi South 18.4 mph 25.3 mph N/A   Mostly Cloudy
1:54 AM 15.8 °F -0.6 °F 14.0 °F 93% 29.92 in 7.0 mi South 18.4 mph 23.0 mph N/A   Mostly Cloudy
2:15 AM 15.8 °F -0.6 °F 14.0 °F 93% 29.91 in 7.0 mi South 18.4 mph 23.0 mph N/A   Overcast
2:35 AM 15.8 °F -1.1 °F 15.8 °F 100% 29.90 in 7.0 mi South 19.6 mph - N/A   Overcast
2:54 AM 17.6 °F 2.2 °F 15.8 °F 93% 29.90 in 10.0 mi South 17.3 mph - N/A   Mostly Cloudy
3:15 AM 17.6 °F 3.7 °F 15.8 °F 93% 29.89 in 10.0 mi South 13.8 mph 21.9 mph N/A   Overcast
3:34 AM 17.6 °F 3.2 °F 15.8 °F 93% 29.88 in 10.0 mi South 15.0 mph - N/A   Mostly Cloudy
3:54 AM 17.6 °F 5.0 °F 15.8 °F 93% 29.88 in 10.0 mi South 11.5 mph 18.4 mph N/A   Mostly Cloudy
4:15 AM 17.6 °F 3.2 °F 17.6 °F 100% 29.86 in 10.0 mi South 15.0 mph 19.6 mph N/A   Overcast
4:34 AM 17.6 °F 2.7 °F 17.6 °F 100% 29.86 in 10.0 mi South 16.1 mph 24.2 mph N/A   Overcast
4:55 AM 17.6 °F 1.3 °F 17.6 °F 100% 29.83 in 7.0 mi South 19.6 mph 24.2 mph N/A   Overcast
5:14 AM 17.6 °F 2.7 °F 17.6 °F 100% 29.83 in 10.0 mi South 16.1 mph 20.7 mph N/A   Overcast
5:35 AM 17.6 °F 4.3 °F 17.6 °F 100% 29.83 in 10.0 mi South 12.7 mph 20.7 mph N/A   Overcast
5:55 AM 19.4 °F 5.5 °F 17.6 °F 93% 29.82 in 10.0 mi South 15.0 mph 23.0 mph N/A   Overcast
6:14 AM 19.4 °F 4.1 °F 17.6 °F 93% 29.81 in 10.0 mi South 18.4 mph - N/A   Overcast
6:35 AM 17.6 °F 3.7 °F 17.6 °F 100% 29.80 in 10.0 mi South 13.8 mph - N/A   Scattered Clouds
6:55 AM 17.6 °F 3.7 °F 17.6 °F 100% 29.78 in 10.0 mi South 13.8 mph - N/A   Clear
7:14 AM 19.4 °F 5.5 °F 17.6 °F 93% 29.77 in 10.0 mi South 15.0 mph 20.7 mph N/A   Clear
7:35 AM 17.6 °F 3.7 °F 17.6 °F 100% 29.76 in 10.0 mi South 13.8 mph - N/A   Clear
7:54 AM 17.6 °F 3.7 °F 17.6 °F 100% 29.75 in 7.0 mi South 13.8 mph - N/A   Clear
8:14 AM 19.4 °F 4.5 °F 19.4 °F 100% 29.74 in 7.0 mi South 17.3 mph 24.2 mph N/A   Clear
8:35 AM 19.4 °F 4.1 °F 19.4 °F 100% 29.73 in 5.0 mi South 18.4 mph 24.2 mph N/A   Clear
8:54 AM 19.4 °F 4.1 °F 19.4 °F 100% 29.73 in 7.0 mi South 18.4 mph 23.0 mph N/A   Clear
9:14 AM 21.2 °F 5.2 °F 19.4 °F 93% 29.71 in 5.0 mi South 21.9 mph 27.6 mph N/A   Scattered Clouds
9:35 AM 21.2 °F 4.5 °F 21.2 °F 100% 29.70 in 2.5 mi South 24.2 mph 31.1 mph N/A   Clear
9:54 AM 21.2 °F 5.2 °F 21.2 °F 100% 29.70 in 5.0 mi South 21.9 mph 27.6 mph N/A   Clear
10:15 AM 23.0 °F 8.3 °F 21.2 °F 93% 29.68 in 4.0 mi South 19.6 mph 31.1 mph N/A   Scattered Clouds
10:35 AM 24.8 °F 10.7 °F 23.0 °F 93% 29.67 in 5.0 mi South 19.6 mph 31.1 mph N/A   Scattered Clouds
10:54 AM 24.8 °F 9.6 °F 23.0 °F 93% 29.67 in 4.0 mi South 23.0 mph 29.9 mph N/A   Clear
11:15 AM 24.8 °F 9.0 °F 24.8 °F 100% 29.65 in 2.5 mi South 25.3 mph 32.2 mph N/A   Clear
11:35 AM 24.8 °F 9.3 °F 24.8 °F 100% 29.65 in 2.5 mi South 24.2 mph 34.5 mph N/A   Clear
11:54 AM 24.8 °F 10.3 °F 24.8 °F 100% 29.65 in 5.0 mi South 20.7 mph 27.6 mph N/A   Clear
12:15 PM 26.6 °F 13.4 °F 24.8 °F 93% 29.65 in 5.0 mi South 18.4 mph 25.3 mph N/A   Scattered Clouds
12:34 PM 26.6 °F 13.4 °F 24.8 °F 93% 29.62 in 5.0 mi South 18.4 mph 27.6 mph N/A   Scattered Clouds
12:54 PM 26.6 °F 13.4 °F 24.8 °F 93% 29.61 in 5.0 mi South 18.4 mph 26.5 mph N/A   Clear
1:15 PM 26.6 °F 12.0 °F 26.6 °F 100% 29.60 in 5.0 mi South 23.0 mph 28.8 mph N/A   Clear
1:34 PM 26.6 °F 13.1 °F 26.6 °F 100% 29.59 in 4.0 mi South 19.6 mph 29.9 mph N/A   Clear
1:55 PM 28.4 °F 14.7 °F 26.6 °F 93% 29.58 in 5.0 mi South 21.9 mph 26.5 mph N/A   Clear
2:15 PM 28.4 °F 15.4 °F 26.6 °F 93% 29.57 in 5.0 mi South 19.6 mph 29.9 mph N/A   Clear
2:34 PM 28.4 °F 15.4 °F 26.6 °F 93% 29.57 in 7.0 mi South 19.6 mph 26.5 mph N/A   Clear
2:55 PM 28.4 °F 14.7 °F 26.6 °F 93% 29.56 in 7.0 mi South 21.9 mph 26.5 mph N/A   Clear
3:15 PM 28.4 °F 14.7 °F 26.6 °F 93% 29.55 in 4.0 mi South 21.9 mph 32.2 mph N/A   Clear
3:34 PM 28.4 °F 14.7 °F 26.6 °F 93% 29.54 in 7.0 mi SSE 21.9 mph 27.6 mph N/A   Clear
3:55 PM 28.4 °F 14.1 °F 26.6 °F 93% 29.53 in 5.0 mi South 24.2 mph 29.9 mph N/A   Clear
4:14 PM 30.2 °F 16.5 °F 28.4 °F 93% 29.52 in 5.0 mi South 24.2 mph 29.9 mph N/A   Scattered Clouds
4:35 PM 30.2 °F 16.8 °F 28.4 °F 93% 29.53 in 5.0 mi South 23.0 mph 29.9 mph N/A   Scattered Clouds
4:55 PM 30.2 °F 18.1 °F 28.4 °F 93% 29.54 in 7.0 mi South 18.4 mph 25.3 mph N/A   Clear
5:14 PM 30.2 °F 17.1 °F 28.4 °F 93% 29.54 in 5.0 mi South 21.9 mph 28.8 mph N/A   Clear
5:35 PM 30.2 °F 17.4 °F 28.4 °F 93% 29.54 in 7.0 mi South 20.7 mph 27.6 mph N/A   Clear
5:55 PM 30.2 °F 17.8 °F 28.4 °F 93% 29.55 in 7.0 mi South 19.6 mph - N/A   Clear
6:14 PM 30.2 °F 18.1 °F 28.4 °F 93% 29.55 in 10.0 mi South 18.4 mph 28.8 mph N/A   Clear
6:35 PM 30.2 °F 18.1 °F 28.4 °F 93% 29.55 in 10.0 mi South 18.4 mph - N/A   Scattered Clouds
6:55 PM 30.2 °F 19.3 °F 28.4 °F 93% 29.55 in 10.0 mi South 15.0 mph - N/A   Scattered Clouds
7:14 PM 30.2 °F 19.3 °F 28.4 °F 93% 29.55 in 10.0 mi South 15.0 mph 19.6 mph N/A   Scattered Clouds
7:35 PM 30.2 °F 18.9 °F 28.4 °F 93% 29.55 in 10.0 mi South 16.1 mph - N/A   Clear
7:55 PM 30.2 °F 19.8 °F 28.4 °F 93% 29.54 in 10.0 mi South 13.8 mph - N/A   Scattered Clouds
8:14 PM 30.2 °F 19.3 °F 30.2 °F 100% 29.54 in 10.0 mi South 15.0 mph 21.9 mph N/A   Scattered Clouds
8:35 PM 30.2 °F 20.8 °F 30.2 °F 100% 29.54 in 10.0 mi South 11.5 mph 16.1 mph N/A   Scattered Clouds
8:54 PM 30.2 °F 21.3 °F 30.2 °F 100% 29.54 in 10.0 mi South 10.4 mph - N/A   Mostly Cloudy
9:15 PM 30.2 °F 19.8 °F 30.2 °F 100% 29.53 in 10.0 mi South 13.8 mph 17.3 mph N/A   Overcast
9:35 PM 30.2 °F 20.8 °F 30.2 °F 100% 29.53 in 10.0 mi South 11.5 mph - N/A   Overcast
9:54 PM 30.2 °F 21.9 °F 30.2 °F 100% 29.53 in 10.0 mi South 9.2 mph - N/A   Overcast
10:15 PM 30.2 °F 21.3 °F 30.2 °F 100% 29.52 in 10.0 mi South 10.4 mph - N/A   Overcast
10:35 PM 30.2 °F 21.9 °F 30.2 °F 100% 29.52 in 10.0 mi South 9.2 mph - N/A   Overcast
10:54 PM 30.2 °F 22.6 °F 30.2 °F 100% 29.52 in 10.0 mi South 8.1 mph - N/A   Overcast
11:15 PM 30.2 °F 22.6 °F 30.2 °F 100% 29.51 in 10.0 mi South 8.1 mph - N/A   Overcast
11:35 PM 30.2 °F 22.6 °F 30.2 °F 100% 29.50 in 7.0 mi South 8.1 mph - N/A   Overcast
11:54 PM 30.2 °F 21.9 °F 28.4 °F 93% 29.49 in 7.0 mi South 9.2 mph - N/A   Mostly Cloudy